Check out our new PWSWeather beta!
PWSweather.com
Personal Weather Stations
Station Observations
ANTHEMNP
Anthem North Parkside, Anthem, AZ 85086

Anthem North ParksideAnthem, AZ 85086

Lat: 33.876464, Lon: -112.13861199999997

Elevation: 1930

Station Type: Davis Vantage Vue with Pro 2 console

http://www.azjerry.com/ANPW/wxindex.php

High Low Average
Temperature 102.9°F39.4°C 77.9°F25.5°C 91.3°F32.9°C
Dew Point 68.0°F20.0°C 62.0°F16.7°C 64.8°F18.2°C
Winds 4.9 mph 7.9 kmh Calm Calm 2.0 mph SE3.2 kmh SE
Wind Gusts 10.0 mph16.1 kmh -- 4.0 mph6.4 kmh
Humidity 70% 28% 44%
Pressure 29.99 in1015.6 mb 29.80 in1009.1 mb -
Precipitation 0.00 in0.0 mm - -
Hour Temp Dew Point Humidity Winds Wind Gusts Pressure Precip Precip Rate Daily Precip Total
12:00 AM 83.9°F28.8°C 66.0°F18.9°C 56% 1.9 mph N3.1 kmh N 5.0 mph8.0 kmh 29.94 in1013.9 mb 0.00 in0.0 mm 0.00 in0.0 mm 0.00 in0.0 mm
12:10 AM 83.7°F28.7°C 66.0°F18.9°C 56% 0.2 mph N0.3 kmh N 3.0 mph4.8 kmh 29.94 in1013.9 mb 0.00 in0.0 mm 0.00 in0.0 mm 0.00 in0.0 mm
12:20 AM 83.4°F28.6°C 67.0°F19.4°C 57% 0.4 mph NNE0.6 kmh NNE 2.0 mph3.2 kmh 29.93 in1013.5 mb 0.00 in0.0 mm 0.00 in0.0 mm 0.00 in0.0 mm
12:30 AM 83.5°F28.6°C 66.0°F18.9°C 56% 0.9 mph N1.4 kmh N 4.0 mph6.4 kmh 29.93 in1013.5 mb 0.00 in0.0 mm 0.00 in0.0 mm 0.00 in0.0 mm
12:40 AM 83.3°F28.5°C 66.0°F18.9°C 57% 1.0 mph N1.6 kmh N 3.0 mph4.8 kmh 29.93 in1013.5 mb 0.00 in0.0 mm 0.00 in0.0 mm 0.00 in0.0 mm
12:50 AM 83.2°F28.4°C 66.0°F18.9°C 57% 1.8 mph NE2.9 kmh NE 3.0 mph4.8 kmh 29.93 in1013.5 mb 0.00 in0.0 mm 0.00 in0.0 mm 0.00 in0.0 mm
01:00 AM 83.1°F28.4°C 66.0°F18.9°C 57% 1.4 mph NNE2.3 kmh NNE 3.0 mph4.8 kmh 29.93 in1013.5 mb 0.00 in0.0 mm 0.00 in0.0 mm 0.00 in0.0 mm
01:10 AM 82.7°F28.2°C 66.0°F18.9°C 58% 1.9 mph NE3.1 kmh NE 4.0 mph6.4 kmh 29.93 in1013.5 mb 0.00 in0.0 mm 0.00 in0.0 mm 0.00 in0.0 mm
01:20 AM 82.8°F28.2°C 66.0°F18.9°C 58% 2.7 mph N4.3 kmh N 6.0 mph9.7 kmh 29.93 in1013.5 mb 0.00 in0.0 mm 0.00 in0.0 mm 0.00 in0.0 mm
01:30 AM 82.4°F28.0°C 67.0°F19.4°C 59% 1.2 mph N1.9 kmh N 3.0 mph4.8 kmh 29.93 in1013.5 mb 0.00 in0.0 mm 0.00 in0.0 mm 0.00 in0.0 mm
01:40 AM 82.3°F27.9°C 66.0°F18.9°C 58% 0.2 mph NNE0.3 kmh NNE 2.0 mph3.2 kmh 29.93 in1013.5 mb 0.00 in0.0 mm 0.00 in0.0 mm 0.00 in0.0 mm
01:50 AM 82.0°F27.8°C 66.0°F18.9°C 59% Calm Calm 1.0 mph1.6 kmh 29.93 in1013.5 mb 0.00 in0.0 mm 0.00 in0.0 mm 0.00 in0.0 mm
02:00 AM 81.5°F27.5°C 67.0°F19.4°C 61% 0.2 mph NNE0.3 kmh NNE 2.0 mph3.2 kmh 29.93 in1013.5 mb 0.00 in0.0 mm 0.00 in0.0 mm 0.00 in0.0 mm
02:10 AM 81.3°F27.4°C 66.0°F18.9°C 61% 0.5 mph NNE0.8 kmh NNE 2.0 mph3.2 kmh 29.93 in1013.5 mb 0.00 in0.0 mm 0.00 in0.0 mm 0.00 in0.0 mm
02:20 AM 81.0°F27.2°C 66.0°F18.9°C 60% Calm Calm 1.0 mph1.6 kmh 29.93 in1013.5 mb 0.00 in0.0 mm 0.00 in0.0 mm 0.00 in0.0 mm
02:30 AM 80.8°F27.1°C 66.0°F18.9°C 60% Calm Calm 1.0 mph1.6 kmh 29.93 in1013.5 mb 0.00 in0.0 mm 0.00 in0.0 mm 0.00 in0.0 mm
02:40 AM 80.9°F27.2°C 67.0°F19.4°C 62% Calm Calm 1.0 mph1.6 kmh 29.93 in1013.5 mb 0.00 in0.0 mm 0.00 in0.0 mm 0.00 in0.0 mm
02:50 AM 80.7°F27.1°C 67.0°F19.4°C 63% Calm Calm 1.0 mph1.6 kmh 29.93 in1013.5 mb 0.00 in0.0 mm 0.00 in0.0 mm 0.00 in0.0 mm
03:00 AM 80.6°F27.0°C 68.0°F20.0°C 65% Calm Calm 1.0 mph1.6 kmh 29.93 in1013.5 mb 0.00 in0.0 mm 0.00 in0.0 mm 0.00 in0.0 mm
03:10 AM 80.4°F26.9°C 68.0°F20.0°C 66% Calm Calm 1.0 mph1.6 kmh 29.93 in1013.5 mb 0.00 in0.0 mm 0.00 in0.0 mm 0.00 in0.0 mm
03:20 AM 79.9°F26.6°C 68.0°F20.0°C 67% Calm Calm -- 29.93 in1013.5 mb 0.00 in0.0 mm 0.00 in0.0 mm 0.00 in0.0 mm
03:30 AM 79.5°F26.4°C 68.0°F20.0°C 68% Calm Calm 1.0 mph1.6 kmh 29.93 in1013.5 mb 0.00 in0.0 mm 0.00 in0.0 mm 0.00 in0.0 mm
03:40 AM 79.4°F26.3°C 68.0°F20.0°C 69% Calm Calm -- 29.93 in1013.5 mb 0.00 in0.0 mm 0.00 in0.0 mm 0.00 in0.0 mm
03:50 AM 79.3°F26.3°C 68.0°F20.0°C 69% Calm Calm 1.0 mph1.6 kmh 29.93 in1013.5 mb 0.00 in0.0 mm 0.00 in0.0 mm 0.00 in0.0 mm
04:00 AM 79.4°F26.3°C 68.0°F20.0°C 68% Calm Calm 1.0 mph1.6 kmh 29.93 in1013.5 mb 0.00 in0.0 mm 0.00 in0.0 mm 0.00 in0.0 mm
04:10 AM 79.2°F26.2°C 68.0°F20.0°C 68% Calm Calm 1.0 mph1.6 kmh 29.93 in1013.5 mb 0.00 in0.0 mm 0.00 in0.0 mm 0.00 in0.0 mm
04:20 AM 78.7°F25.9°C 68.0°F20.0°C 69% Calm Calm -- 29.93 in1013.5 mb 0.00 in0.0 mm 0.00 in0.0 mm 0.00 in0.0 mm
04:30 AM 78.2°F25.7°C 68.0°F20.0°C 70% Calm Calm -- 29.93 in1013.5 mb 0.00 in0.0 mm 0.00 in0.0 mm 0.00 in0.0 mm
04:40 AM 78.0°F25.6°C 67.0°F19.4°C 70% Calm Calm -- 29.94 in1013.9 mb 0.00 in0.0 mm 0.00 in0.0 mm 0.00 in0.0 mm
04:50 AM 77.9°F25.5°C 67.0°F19.4°C 70% Calm Calm -- 29.94 in1013.9 mb 0.00 in0.0 mm 0.00 in0.0 mm 0.00 in0.0 mm
05:00 AM 77.9°F25.5°C 67.0°F19.4°C 70% Calm Calm -- 29.94 in1013.9 mb 0.00 in0.0 mm 0.00 in0.0 mm 0.00 in0.0 mm
05:10 AM 78.2°F25.7°C 68.0°F20.0°C 70% 0.3 mph N0.5 kmh N 1.0 mph1.6 kmh 29.95 in1014.2 mb 0.00 in0.0 mm 0.00 in0.0 mm 0.00 in0.0 mm
05:20 AM 78.4°F25.8°C 68.0°F20.0°C 70% 0.8 mph N1.3 kmh N 2.0 mph3.2 kmh 29.95 in1014.2 mb 0.00 in0.0 mm 0.00 in0.0 mm 0.00 in0.0 mm
05:30 AM 78.3°F25.7°C 67.0°F19.4°C 69% 0.6 mph NNE1.0 kmh NNE 2.0 mph3.2 kmh 29.95 in1014.2 mb 0.00 in0.0 mm 0.00 in0.0 mm 0.00 in0.0 mm
05:40 AM 78.2°F25.7°C 67.0°F19.4°C 69% 1.3 mph N2.1 kmh N 3.0 mph4.8 kmh 29.95 in1014.2 mb 0.00 in0.0 mm 0.00 in0.0 mm 0.00 in0.0 mm
05:50 AM 78.2°F25.7°C 67.0°F19.4°C 68% 1.8 mph NNE2.9 kmh NNE 4.0 mph6.4 kmh 29.96 in1014.6 mb 0.00 in0.0 mm 0.00 in0.0 mm 0.00 in0.0 mm
06:00 AM 78.2°F25.7°C 66.0°F18.9°C 67% 2.3 mph NNE3.7 kmh NNE 4.0 mph6.4 kmh 29.96 in1014.6 mb 0.00 in0.0 mm 0.00 in0.0 mm 0.00 in0.0 mm
06:10 AM 78.2°F25.7°C 66.0°F18.9°C 66% 2.2 mph N3.5 kmh N 5.0 mph8.0 kmh 29.96 in1014.6 mb 0.00 in0.0 mm 0.00 in0.0 mm 0.00 in0.0 mm
06:20 AM 78.5°F25.8°C 66.0°F18.9°C 65% 3.2 mph NE5.1 kmh NE 7.0 mph11.3 kmh 29.96 in1014.6 mb 0.00 in0.0 mm 0.00 in0.0 mm 0.00 in0.0 mm
06:30 AM 79.0°F26.1°C 65.0°F18.3°C 63% 4.3 mph NNW6.9 kmh NNW 8.0 mph12.9 kmh 29.96 in1014.6 mb 0.00 in0.0 mm 0.00 in0.0 mm 0.00 in0.0 mm
06:40 AM 79.4°F26.3°C 65.0°F18.3°C 62% 4.0 mph N6.4 kmh N 8.0 mph12.9 kmh 29.97 in1014.9 mb 0.00 in0.0 mm 0.00 in0.0 mm 0.00 in0.0 mm
06:50 AM 79.9°F26.6°C 65.0°F18.3°C 61% 4.2 mph NNE6.8 kmh NNE 9.0 mph14.5 kmh 29.97 in1014.9 mb 0.00 in0.0 mm 0.00 in0.0 mm 0.00 in0.0 mm
07:00 AM 80.7°F27.1°C 65.0°F18.3°C 59% 4.2 mph N6.8 kmh N 8.0 mph12.9 kmh 29.97 in1014.9 mb 0.00 in0.0 mm 0.00 in0.0 mm 0.00 in0.0 mm
07:10 AM 81.5°F27.5°C 65.0°F18.3°C 58% 4.2 mph NE6.8 kmh NE 7.0 mph11.3 kmh 29.98 in1015.2 mb 0.00 in0.0 mm 0.00 in0.0 mm 0.00 in0.0 mm
07:20 AM 82.2°F27.9°C 65.0°F18.3°C 56% 3.2 mph NNE5.1 kmh NNE 7.0 mph11.3 kmh 29.98 in1015.2 mb 0.00 in0.0 mm 0.00 in0.0 mm 0.00 in0.0 mm
07:30 AM 83.4°F28.6°C 65.0°F18.3°C 54% 4.4 mph NNE7.1 kmh NNE 10.0 mph16.1 kmh 29.98 in1015.2 mb 0.00 in0.0 mm 0.00 in0.0 mm 0.00 in0.0 mm
07:40 AM 84.1°F28.9°C 65.0°F18.3°C 53% 4.2 mph N6.8 kmh N 9.0 mph14.5 kmh 29.98 in1015.2 mb 0.00 in0.0 mm 0.00 in0.0 mm 0.00 in0.0 mm
07:50 AM 84.8°F29.3°C 65.0°F18.3°C 51% 4.9 mph N7.9 kmh N 9.0 mph14.5 kmh 29.99 in1015.6 mb 0.00 in0.0 mm 0.00 in0.0 mm 0.00 in0.0 mm
08:00 AM 86.3°F30.2°C 66.0°F18.9°C 51% 3.0 mph N4.8 kmh N 7.0 mph11.3 kmh 29.99 in1015.6 mb 0.00 in0.0 mm 0.00 in0.0 mm 0.00 in0.0 mm
08:10 AM 86.8°F30.4°C 65.0°F18.3°C 49% 3.2 mph N5.1 kmh N 7.0 mph11.3 kmh 29.99 in1015.6 mb 0.00 in0.0 mm 0.00 in0.0 mm 0.00 in0.0 mm
08:20 AM 87.7°F30.9°C 66.0°F18.9°C 48% 2.7 mph N4.3 kmh N 7.0 mph11.3 kmh 29.99 in1015.6 mb 0.00 in0.0 mm 0.00 in0.0 mm 0.00 in0.0 mm
08:30 AM 88.0°F31.1°C 66.0°F18.9°C 48% 2.1 mph N3.4 kmh N 5.0 mph8.0 kmh 29.99 in1015.6 mb 0.00 in0.0 mm 0.00 in0.0 mm 0.00 in0.0 mm
08:40 AM 89.3°F31.8°C 66.0°F18.9°C 47% 0.9 mph NE1.4 kmh NE 4.0 mph6.4 kmh 29.99 in1015.6 mb 0.00 in0.0 mm 0.00 in0.0 mm 0.00 in0.0 mm
08:50 AM 90.6°F32.6°C 66.0°F18.9°C 45% 0.3 mph NE0.5 kmh NE 2.0 mph3.2 kmh 29.99 in1015.6 mb 0.00 in0.0 mm 0.00 in0.0 mm 0.00 in0.0 mm
09:00 AM 92.1°F33.4°C 67.0°F19.4°C 43% 0.4 mph ESE0.6 kmh ESE 1.0 mph1.6 kmh 29.98 in1015.2 mb 0.00 in0.0 mm 0.00 in0.0 mm 0.00 in0.0 mm
09:10 AM 92.5°F33.6°C 66.0°F18.9°C 42% 0.4 mph N0.6 kmh N 3.0 mph4.8 kmh 29.98 in1015.2 mb 0.00 in0.0 mm 0.00 in0.0 mm 0.00 in0.0 mm
09:20 AM 93.2°F34.0°C 66.0°F18.9°C 41% Calm Calm 1.0 mph1.6 kmh 29.98 in1015.2 mb 0.00 in0.0 mm 0.00 in0.0 mm 0.00 in0.0 mm
09:30 AM 93.7°F34.3°C 67.0°F19.4°C 41% 0.7 mph SW1.1 kmh SW 3.0 mph4.8 kmh 29.98 in1015.2 mb 0.00 in0.0 mm 0.00 in0.0 mm 0.00 in0.0 mm
09:40 AM 93.7°F34.3°C 67.0°F19.4°C 41% 1.4 mph NW2.3 kmh NW 6.0 mph9.7 kmh 29.98 in1015.2 mb 0.00 in0.0 mm 0.00 in0.0 mm 0.00 in0.0 mm
09:50 AM 93.7°F34.3°C 67.0°F19.4°C 41% 1.6 mph S2.6 kmh S 5.0 mph8.0 kmh 29.98 in1015.2 mb 0.00 in0.0 mm 0.00 in0.0 mm 0.00 in0.0 mm
10:00 AM 93.7°F34.3°C 66.0°F18.9°C 40% 1.4 mph SSW2.3 kmh SSW 4.0 mph6.4 kmh 29.98 in1015.2 mb 0.00 in0.0 mm 0.00 in0.0 mm 0.00 in0.0 mm
10:10 AM 93.8°F34.3°C 67.0°F19.4°C 41% 1.1 mph NNE1.8 kmh NNE 3.0 mph4.8 kmh 29.98 in1015.2 mb 0.00 in0.0 mm 0.00 in0.0 mm 0.00 in0.0 mm
10:20 AM 93.4°F34.1°C 65.0°F18.3°C 39% 1.8 mph NNE2.9 kmh NNE 6.0 mph9.7 kmh 29.97 in1014.9 mb 0.00 in0.0 mm 0.00 in0.0 mm 0.00 in0.0 mm
10:30 AM 94.5°F34.7°C 66.0°F18.9°C 39% 1.7 mph SSW2.7 kmh SSW 5.0 mph8.0 kmh 29.97 in1014.9 mb 0.00 in0.0 mm 0.00 in0.0 mm 0.00 in0.0 mm
10:40 AM 95.0°F35.0°C 66.0°F18.9°C 38% 1.5 mph SSW2.4 kmh SSW 4.0 mph6.4 kmh 29.96 in1014.6 mb 0.00 in0.0 mm 0.00 in0.0 mm 0.00 in0.0 mm
10:50 AM 96.2°F35.7°C 66.0°F18.9°C 37% 1.8 mph SE2.9 kmh SE 5.0 mph8.0 kmh 29.96 in1014.6 mb 0.00 in0.0 mm 0.00 in0.0 mm 0.00 in0.0 mm
11:00 AM 97.1°F36.2°C 65.0°F18.3°C 35% 1.8 mph SE2.9 kmh SE 5.0 mph8.0 kmh 29.95 in1014.2 mb 0.00 in0.0 mm 0.00 in0.0 mm 0.00 in0.0 mm
11:10 AM 95.9°F35.5°C 66.0°F18.9°C 37% 2.0 mph SSE3.2 kmh SSE 4.0 mph6.4 kmh 29.95 in1014.2 mb 0.00 in0.0 mm 0.00 in0.0 mm 0.00 in0.0 mm
11:20 AM 97.8°F36.6°C 65.0°F18.3°C 34% 0.7 mph NNE1.1 kmh NNE 3.0 mph4.8 kmh 29.95 in1014.2 mb 0.00 in0.0 mm 0.00 in0.0 mm 0.00 in0.0 mm
11:30 AM 97.6°F36.4°C 66.0°F18.9°C 35% 0.8 mph NW1.3 kmh NW 4.0 mph6.4 kmh 29.94 in1013.9 mb 0.00 in0.0 mm 0.00 in0.0 mm 0.00 in0.0 mm
11:40 AM 97.9°F36.6°C 65.0°F18.3°C 34% 0.7 mph SSW1.1 kmh SSW 3.0 mph4.8 kmh 29.94 in1013.9 mb 0.00 in0.0 mm 0.00 in0.0 mm 0.00 in0.0 mm
11:50 AM 98.2°F36.8°C 65.0°F18.3°C 34% 2.0 mph SSW3.2 kmh SSW 7.0 mph11.3 kmh 29.94 in1013.9 mb 0.00 in0.0 mm 0.00 in0.0 mm 0.00 in0.0 mm
12:00 PM 97.7°F36.5°C 65.0°F18.3°C 34% 1.7 mph SE2.7 kmh SE 6.0 mph9.7 kmh 29.94 in1013.9 mb 0.00 in0.0 mm 0.00 in0.0 mm 0.00 in0.0 mm
12:10 PM 99.0°F37.2°C 66.0°F18.9°C 34% 2.4 mph S3.9 kmh S 7.0 mph11.3 kmh 29.93 in1013.5 mb 0.00 in0.0 mm 0.00 in0.0 mm 0.00 in0.0 mm
12:20 PM 98.8°F37.1°C 65.0°F18.3°C 33% 3.1 mph SW5.0 kmh SW 8.0 mph12.9 kmh 29.93 in1013.5 mb 0.00 in0.0 mm 0.00 in0.0 mm 0.00 in0.0 mm
12:30 PM 98.6°F37.0°C 65.0°F18.3°C 33% 2.5 mph SSE4.0 kmh SSE 8.0 mph12.9 kmh 29.92 in1013.2 mb 0.00 in0.0 mm 0.00 in0.0 mm 0.00 in0.0 mm
12:40 PM 99.7°F37.6°C 65.0°F18.3°C 32% 1.1 mph NE1.8 kmh NE 4.0 mph6.4 kmh 29.92 in1013.2 mb 0.00 in0.0 mm 0.00 in0.0 mm 0.00 in0.0 mm
12:50 PM 100.1°F37.8°C 65.0°F18.3°C 32% 2.4 mph SE3.9 kmh SE 7.0 mph11.3 kmh 29.91 in1012.9 mb 0.00 in0.0 mm 0.00 in0.0 mm 0.00 in0.0 mm
01:00 PM 101.2°F38.4°C 64.0°F17.8°C 29% 2.4 mph NNE3.9 kmh NNE 7.0 mph11.3 kmh 29.91 in1012.9 mb 0.00 in0.0 mm 0.00 in0.0 mm 0.00 in0.0 mm
01:10 PM 98.2°F36.8°C 64.0°F17.8°C 32% 2.3 mph N3.7 kmh N 7.0 mph11.3 kmh 29.91 in1012.9 mb 0.00 in0.0 mm 0.00 in0.0 mm 0.00 in0.0 mm
01:20 PM 99.9°F37.7°C 65.0°F18.3°C 32% 1.4 mph S2.3 kmh S 6.0 mph9.7 kmh 29.91 in1012.9 mb 0.00 in0.0 mm 0.00 in0.0 mm 0.00 in0.0 mm
01:30 PM 99.3°F37.4°C 65.0°F18.3°C 32% 1.7 mph NE2.7 kmh NE 7.0 mph11.3 kmh 29.90 in1012.5 mb 0.00 in0.0 mm 0.00 in0.0 mm 0.00 in0.0 mm
01:40 PM 99.6°F37.6°C 64.0°F17.8°C 31% 2.1 mph NNE3.4 kmh NNE 10.0 mph16.1 kmh 29.90 in1012.5 mb 0.00 in0.0 mm 0.00 in0.0 mm 0.00 in0.0 mm
01:50 PM 98.9°F37.2°C 63.0°F17.2°C 31% 1.8 mph SSW2.9 kmh SSW 4.0 mph6.4 kmh 29.89 in1012.2 mb 0.00 in0.0 mm 0.00 in0.0 mm 0.00 in0.0 mm
02:00 PM 99.8°F37.7°C 63.0°F17.2°C 30% 1.7 mph E2.7 kmh E 6.0 mph9.7 kmh 29.89 in1012.2 mb 0.00 in0.0 mm 0.00 in0.0 mm 0.00 in0.0 mm
02:10 PM 101.3°F38.5°C 65.0°F18.3°C 30% 1.4 mph SE2.3 kmh SE 7.0 mph11.3 kmh 29.88 in1011.9 mb 0.00 in0.0 mm 0.00 in0.0 mm 0.00 in0.0 mm
02:20 PM 101.6°F38.7°C 64.0°F17.8°C 29% 3.0 mph SW4.8 kmh SW 9.0 mph14.5 kmh 29.87 in1011.5 mb 0.00 in0.0 mm 0.00 in0.0 mm 0.00 in0.0 mm
02:30 PM 102.9°F39.4°C 64.0°F17.8°C 28% 1.2 mph SSW1.9 kmh SSW 5.0 mph8.0 kmh 29.87 in1011.5 mb 0.00 in0.0 mm 0.00 in0.0 mm 0.00 in0.0 mm
02:40 PM 101.6°F38.7°C 64.0°F17.8°C 29% 2.4 mph SSW3.9 kmh SSW 9.0 mph14.5 kmh 29.86 in1011.2 mb 0.00 in0.0 mm 0.00 in0.0 mm 0.00 in0.0 mm
02:50 PM 101.9°F38.8°C 64.0°F17.8°C 29% 3.3 mph SE5.3 kmh SE 9.0 mph14.5 kmh 29.86 in1011.2 mb 0.00 in0.0 mm 0.00 in0.0 mm 0.00 in0.0 mm
03:00 PM 101.9°F38.8°C 64.0°F17.8°C 29% 3.2 mph SSE5.1 kmh SSE 9.0 mph14.5 kmh 29.86 in1011.2 mb 0.00 in0.0 mm 0.00 in0.0 mm 0.00 in0.0 mm
03:10 PM 101.2°F38.4°C 65.0°F18.3°C 30% 1.7 mph SW2.7 kmh SW 7.0 mph11.3 kmh 29.85 in1010.8 mb 0.00 in0.0 mm 0.00 in0.0 mm 0.00 in0.0 mm
03:20 PM 101.5°F38.6°C 63.0°F17.2°C 28% 3.8 mph SW6.1 kmh SW 10.0 mph16.1 kmh 29.85 in1010.8 mb 0.00 in0.0 mm 0.00 in0.0 mm 0.00 in0.0 mm
03:30 PM 100.4°F38.0°C 63.0°F17.2°C 29% 2.3 mph N3.7 kmh N 8.0 mph12.9 kmh 29.84 in1010.5 mb 0.00 in0.0 mm 0.00 in0.0 mm 0.00 in0.0 mm
03:40 PM 101.2°F38.4°C 64.0°F17.8°C 29% 2.4 mph SW3.9 kmh SW 8.0 mph12.9 kmh 29.84 in1010.5 mb 0.00 in0.0 mm 0.00 in0.0 mm 0.00 in0.0 mm
03:50 PM 101.3°F38.5°C 63.0°F17.2°C 28% 2.7 mph SSW4.3 kmh SSW 8.0 mph12.9 kmh 29.84 in1010.5 mb 0.00 in0.0 mm 0.00 in0.0 mm 0.00 in0.0 mm
04:00 PM 100.7°F38.2°C 62.0°F16.7°C 28% 1.3 mph N2.1 kmh N 5.0 mph8.0 kmh 29.83 in1010.2 mb 0.00 in0.0 mm 0.00 in0.0 mm 0.00 in0.0 mm
04:10 PM 101.0°F38.3°C 63.0°F17.2°C 29% 2.7 mph SE4.3 kmh SE 7.0 mph11.3 kmh 29.83 in1010.2 mb 0.00 in0.0 mm 0.00 in0.0 mm 0.00 in0.0 mm
04:20 PM 101.3°F38.5°C 64.0°F17.8°C 29% 3.3 mph SSW5.3 kmh SSW 9.0 mph14.5 kmh 29.83 in1010.2 mb 0.00 in0.0 mm 0.00 in0.0 mm 0.00 in0.0 mm
04:30 PM 100.6°F38.1°C 63.0°F17.2°C 29% 4.3 mph SW6.9 kmh SW 10.0 mph16.1 kmh 29.82 in1009.8 mb 0.00 in0.0 mm 0.00 in0.0 mm 0.00 in0.0 mm
04:40 PM 100.8°F38.2°C 63.0°F17.2°C 29% 1.9 mph SE3.1 kmh SE 6.0 mph9.7 kmh 29.82 in1009.8 mb 0.00 in0.0 mm 0.00 in0.0 mm 0.00 in0.0 mm
04:50 PM 100.3°F37.9°C 63.0°F17.2°C 29% 2.2 mph SW3.5 kmh SW 5.0 mph8.0 kmh 29.82 in1009.8 mb 0.00 in0.0 mm 0.00 in0.0 mm 0.00 in0.0 mm
05:00 PM 100.7°F38.2°C 63.0°F17.2°C 29% 2.9 mph SW4.7 kmh SW 10.0 mph16.1 kmh 29.82 in1009.8 mb 0.00 in0.0 mm 0.00 in0.0 mm 0.00 in0.0 mm
05:10 PM 100.8°F38.2°C 62.0°F16.7°C 28% 1.8 mph SE2.9 kmh SE 6.0 mph9.7 kmh 29.82 in1009.8 mb 0.00 in0.0 mm 0.00 in0.0 mm 0.00 in0.0 mm
05:20 PM 100.6°F38.1°C 62.0°F16.7°C 28% 2.1 mph SSW3.4 kmh SSW 7.0 mph11.3 kmh 29.81 in1009.5 mb 0.00 in0.0 mm 0.00 in0.0 mm 0.00 in0.0 mm
05:30 PM 100.2°F37.9°C 63.0°F17.2°C 29% 2.3 mph SW3.7 kmh SW 8.0 mph12.9 kmh 29.81 in1009.5 mb 0.00 in0.0 mm 0.00 in0.0 mm 0.00 in0.0 mm
05:40 PM 100.4°F38.0°C 63.0°F17.2°C 29% 2.8 mph SW4.5 kmh SW 8.0 mph12.9 kmh 29.80 in1009.1 mb 0.00 in0.0 mm 0.00 in0.0 mm 0.00 in0.0 mm
05:50 PM 100.4°F38.0°C 62.0°F16.7°C 28% 2.6 mph SE4.2 kmh SE 7.0 mph11.3 kmh 29.80 in1009.1 mb 0.00 in0.0 mm 0.00 in0.0 mm 0.00 in0.0 mm
06:00 PM 99.8°F37.7°C 62.0°F16.7°C 29% 2.6 mph SW4.2 kmh SW 7.0 mph11.3 kmh 29.80 in1009.1 mb 0.00 in0.0 mm 0.00 in0.0 mm 0.00 in0.0 mm
06:10 PM 99.8°F37.7°C 62.0°F16.7°C 29% 1.2 mph S1.9 kmh S 6.0 mph9.7 kmh 29.81 in1009.5 mb 0.00 in0.0 mm 0.00 in0.0 mm 0.00 in0.0 mm
06:20 PM 99.9°F37.7°C 62.0°F16.7°C 29% 2.2 mph SSW3.5 kmh SSW 8.0 mph12.9 kmh 29.81 in1009.5 mb 0.00 in0.0 mm 0.00 in0.0 mm 0.00 in0.0 mm
06:30 PM 99.5°F37.5°C 62.0°F16.7°C 29% 1.7 mph SSW2.7 kmh SSW 6.0 mph9.7 kmh 29.81 in1009.5 mb 0.00 in0.0 mm 0.00 in0.0 mm 0.00 in0.0 mm
06:40 PM 99.3°F37.4°C 62.0°F16.7°C 29% 2.1 mph S3.4 kmh S 5.0 mph8.0 kmh 29.81 in1009.5 mb 0.00 in0.0 mm 0.00 in0.0 mm 0.00 in0.0 mm
06:50 PM 99.1°F37.3°C 62.0°F16.7°C 29% 1.9 mph SW3.1 kmh SW 6.0 mph9.7 kmh 29.81 in1009.5 mb 0.00 in0.0 mm 0.00 in0.0 mm 0.00 in0.0 mm
07:00 PM 98.9°F37.2°C 62.0°F16.7°C 29% 1.6 mph SW2.6 kmh SW 4.0 mph6.4 kmh 29.81 in1009.5 mb 0.00 in0.0 mm 0.00 in0.0 mm 0.00 in0.0 mm
07:10 PM 98.5°F36.9°C 62.0°F16.7°C 30% 1.9 mph SW3.1 kmh SW 5.0 mph8.0 kmh 29.82 in1009.8 mb 0.00 in0.0 mm 0.00 in0.0 mm 0.00 in0.0 mm
07:20 PM 98.4°F36.9°C 62.0°F16.7°C 30% 1.7 mph SSW2.7 kmh SSW 4.0 mph6.4 kmh 29.82 in1009.8 mb 0.00 in0.0 mm 0.00 in0.0 mm 0.00 in0.0 mm
07:30 PM 98.0°F36.7°C 63.0°F17.2°C 31% 1.9 mph SW3.1 kmh SW 5.0 mph8.0 kmh 29.82 in1009.8 mb 0.00 in0.0 mm 0.00 in0.0 mm 0.00 in0.0 mm
07:40 PM 97.8°F36.6°C 62.0°F16.7°C 31% 2.0 mph SW3.2 kmh SW 5.0 mph8.0 kmh 29.83 in1010.2 mb 0.00 in0.0 mm 0.00 in0.0 mm 0.00 in0.0 mm
07:50 PM 97.5°F36.4°C 62.0°F16.7°C 31% 2.4 mph SSW3.9 kmh SSW 6.0 mph9.7 kmh 29.83 in1010.2 mb 0.00 in0.0 mm 0.00 in0.0 mm 0.00 in0.0 mm
08:00 PM 97.2°F36.2°C 63.0°F17.2°C 32% 2.4 mph SW3.9 kmh SW 5.0 mph8.0 kmh 29.83 in1010.2 mb 0.00 in0.0 mm 0.00 in0.0 mm 0.00 in0.0 mm
08:10 PM 97.0°F36.1°C 63.0°F17.2°C 32% 2.0 mph SW3.2 kmh SW 5.0 mph8.0 kmh 29.84 in1010.5 mb 0.00 in0.0 mm 0.00 in0.0 mm 0.00 in0.0 mm
08:20 PM 96.7°F35.9°C 62.0°F16.7°C 32% 1.8 mph SW2.9 kmh SW 4.0 mph6.4 kmh 29.84 in1010.5 mb 0.00 in0.0 mm 0.00 in0.0 mm 0.00 in0.0 mm
08:30 PM 96.5°F35.8°C 63.0°F17.2°C 33% 1.3 mph SW2.1 kmh SW 4.0 mph6.4 kmh 29.85 in1010.8 mb 0.00 in0.0 mm 0.00 in0.0 mm 0.00 in0.0 mm
08:40 PM 96.1°F35.6°C 63.0°F17.2°C 33% 1.3 mph SW2.1 kmh SW 5.0 mph8.0 kmh 29.85 in1010.8 mb 0.00 in0.0 mm 0.00 in0.0 mm 0.00 in0.0 mm
08:50 PM 95.7°F35.4°C 63.0°F17.2°C 34% 0.9 mph SW1.4 kmh SW 4.0 mph6.4 kmh 29.85 in1010.8 mb 0.00 in0.0 mm 0.00 in0.0 mm 0.00 in0.0 mm
09:00 PM 95.5°F35.3°C 64.0°F17.8°C 35% 1.1 mph SW1.8 kmh SW 4.0 mph6.4 kmh 29.85 in1010.8 mb 0.00 in0.0 mm 0.00 in0.0 mm 0.00 in0.0 mm
09:10 PM 95.3°F35.2°C 64.0°F17.8°C 35% 1.1 mph SW1.8 kmh SW 4.0 mph6.4 kmh 29.85 in1010.8 mb 0.00 in0.0 mm 0.00 in0.0 mm 0.00 in0.0 mm
09:20 PM 95.1°F35.1°C 63.0°F17.2°C 35% 0.8 mph SW1.3 kmh SW 3.0 mph4.8 kmh 29.85 in1010.8 mb 0.00 in0.0 mm 0.00 in0.0 mm 0.00 in0.0 mm
09:30 PM 94.9°F34.9°C 64.0°F17.8°C 36% 1.2 mph S1.9 kmh S 3.0 mph4.8 kmh 29.86 in1011.2 mb 0.00 in0.0 mm 0.00 in0.0 mm 0.00 in0.0 mm
09:40 PM 94.6°F34.8°C 64.0°F17.8°C 36% 0.4 mph SW0.6 kmh SW 2.0 mph3.2 kmh 29.85 in1010.8 mb 0.00 in0.0 mm 0.00 in0.0 mm 0.00 in0.0 mm
09:50 PM 94.2°F34.6°C 64.0°F17.8°C 37% 0.2 mph SSW0.3 kmh SSW 2.0 mph3.2 kmh 29.85 in1010.8 mb 0.00 in0.0 mm 0.00 in0.0 mm 0.00 in0.0 mm
10:00 PM 93.5°F34.2°C 64.0°F17.8°C 38% Calm Calm 1.0 mph1.6 kmh 29.85 in1010.8 mb 0.00 in0.0 mm 0.00 in0.0 mm 0.00 in0.0 mm
10:10 PM 92.6°F33.7°C 64.0°F17.8°C 39% Calm Calm -- 29.86 in1011.2 mb 0.00 in0.0 mm 0.00 in0.0 mm 0.00 in0.0 mm
10:20 PM 92.2°F33.4°C 63.0°F17.2°C 38% 0.2 mph SE0.3 kmh SE 2.0 mph3.2 kmh 29.85 in1010.8 mb 0.00 in0.0 mm 0.00 in0.0 mm 0.00 in0.0 mm
10:30 PM 91.8°F33.2°C 63.0°F17.2°C 38% Calm Calm 1.0 mph1.6 kmh 29.85 in1010.8 mb 0.00 in0.0 mm 0.00 in0.0 mm 0.00 in0.0 mm
10:40 PM 91.3°F32.9°C 62.0°F16.7°C 38% Calm Calm -- 29.85 in1010.8 mb 0.00 in0.0 mm 0.00 in0.0 mm 0.00 in0.0 mm
10:50 PM 90.9°F32.7°C 63.0°F17.2°C 39% Calm Calm -- 29.86 in1011.2 mb 0.00 in0.0 mm 0.00 in0.0 mm 0.00 in0.0 mm
11:00 PM 90.6°F32.6°C 62.0°F16.7°C 39% Calm Calm 1.0 mph1.6 kmh 29.85 in1010.8 mb 0.00 in0.0 mm 0.00 in0.0 mm 0.00 in0.0 mm
11:10 PM 90.4°F32.4°C 62.0°F16.7°C 39% Calm Calm 1.0 mph1.6 kmh 29.85 in1010.8 mb 0.00 in0.0 mm 0.00 in0.0 mm 0.00 in0.0 mm
11:20 PM 90.2°F32.3°C 62.0°F16.7°C 39% Calm Calm 1.0 mph1.6 kmh 29.85 in1010.8 mb 0.00 in0.0 mm 0.00 in0.0 mm 0.00 in0.0 mm
11:30 PM 90.0°F32.2°C 64.0°F17.8°C 42% Calm Calm -- 29.84 in1010.5 mb 0.00 in0.0 mm 0.00 in0.0 mm 0.00 in0.0 mm
11:40 PM 89.4°F31.9°C 64.0°F17.8°C 43% 0.6 mph NNE1.0 kmh NNE 3.0 mph4.8 kmh 29.84 in1010.5 mb 0.00 in0.0 mm 0.00 in0.0 mm 0.00 in0.0 mm
11:50 PM 89.5°F31.9°C 64.0°F17.8°C 43% Calm Calm 1.0 mph1.6 kmh 29.84 in1010.5 mb 0.00 in0.0 mm 0.00 in0.0 mm 0.00 in0.0 mm